Time;durP1;ratioP1;P1;durP2;ratioP2;P2;SDS_P1;SDS_P2;PMS_P1;PMS_P2;Temp;Humidity;BMP_temperature;BMP_pressure;BME280_temperature;BME280_humidity;BME280_pressure;Samples;Min_cycle;Max_cycle;Signal;HPM_P1;HPM_P2
2023/04/14 00:01:23;;;;;;;6.15;2.10;;;5.40;99.90;;;;;;5092947;28;20048;-74
2023/04/14 00:03:49;;;;;;;3.50;1.85;;;5.40;99.90;;;;;;5093258;28;20036;-73
2023/04/14 00:06:15;;;;;;;3.35;1.80;;;5.30;99.90;;;;;;5092972;28;20043;-74
2023/04/14 00:08:40;;;;;;;3.85;2.00;;;5.30;99.90;;;;;;5093079;28;20056;-72
2023/04/14 00:11:06;;;;;;;3.45;1.90;;;5.20;99.90;;;;;;5095571;28;20082;-73
2023/04/14 00:13:32;;;;;;;3.42;1.90;;;5.20;99.90;;;;;;5096810;28;20383;-74
2023/04/14 00:15:58;;;;;;;5.85;2.05;;;5.10;99.90;;;;;;5096672;28;20476;-73
2023/04/14 00:18:24;;;;;;;4.68;2.13;;;5.10;99.90;;;;;;5097087;28;20089;-74
2023/04/14 00:20:49;;;;;;;5.10;1.90;;;5.00;99.90;;;;;;5096618;28;20054;-72
2023/04/14 00:23:15;;;;;;;3.70;2.08;;;4.90;99.90;;;;;;5096313;28;20055;-72
2023/04/14 00:25:40;;;;;;;1.95;1.70;;;4.90;99.90;;;;;;5096508;28;20168;-74
2023/04/14 00:28:06;;;;;;;5.28;1.90;;;4.80;99.90;;;;;;5096510;28;20077;-73
2023/04/14 00:30:31;;;;;;;2.88;1.92;;;4.80;99.90;;;;;;5096254;28;20476;-72
2023/04/14 00:32:57;;;;;;;4.72;1.90;;;4.70;99.90;;;;;;5096207;28;20130;-73
2023/04/14 00:35:25;;;;;;;5.07;2.05;;;4.70;99.90;;;;;;5096399;28;20391;-73
2023/04/14 00:37:51;;;;;;;3.35;1.90;;;4.60;99.90;;;;;;5095972;28;20040;-73
2023/04/14 00:40:17;;;;;;;2.30;1.75;;;4.60;99.90;;;;;;5096280;28;20047;-74
2023/04/14 00:42:43;;;;;;;3.30;1.80;;;4.50;99.90;;;;;;5096212;28;20462;-74
2023/04/14 00:45:09;;;;;;;3.17;2.15;;;4.40;99.90;;;;;;5096232;28;20048;-74
2023/04/14 00:47:37;;;;;;;6.17;2.00;;;4.50;99.90;;;;;;5096195;28;20047;-74
2023/04/14 00:50:04;;;;;;;5.78;1.90;;;4.40;99.90;;;;;;5095620;28;20302;-74
2023/04/14 00:52:31;;;;;;;3.72;2.00;;;4.30;99.90;;;;;;5095774;28;20048;-74
2023/04/14 00:54:58;;;;;;;6.60;2.13;;;4.30;99.90;;;;;;5095912;28;20047;-73
2023/04/14 00:57:25;;;;;;;;;;;4.30;99.90;;;;;;5096450;28;20392;-73
2023/04/14 00:59:52;;;;;;;4.72;2.08;;;4.30;99.90;;;;;;5095774;28;19924;-73
2023/04/14 01:02:17;;;;;;;5.00;2.22;;;4.20;99.90;;;;;;5095468;28;20385;-74
2023/04/14 01:04:43;;;;;;;5.75;2.05;;;4.20;99.90;;;;;;5095811;28;20093;-74
2023/04/14 01:07:09;;;;;;;4.45;2.20;;;4.20;99.90;;;;;;5095311;28;20780;-74
2023/04/14 01:09:36;;;;;;;3.83;1.98;;;4.10;99.90;;;;;;5095674;28;20047;-74
2023/04/14 01:12:18;;;;;;;5.88;2.25;;;4.10;99.90;;;;;;5095712;28;20036;-74
2023/04/14 01:14:49;;;;;;;4.30;2.22;;;4.00;99.90;;;;;;5095739;28;20043;-73
2023/04/14 01:17:33;;;;;;;3.95;2.30;;;4.00;99.90;;;;;;5095541;28;20460;-73
2023/04/14 01:20:09;;;;;;;5.22;1.90;;;4.00;99.90;;;;;;5095510;28;20080;-73
2023/04/14 01:22:46;;;;;;;6.07;2.10;;;4.00;99.90;;;;;;5095144;28;20044;-73
2023/04/14 01:25:49;;;;;;;3.13;1.90;;;3.90;99.90;;;;;;5095515;28;20092;-74
2023/04/14 01:28:41;;;;;;;3.63;2.20;;;3.90;99.90;;;;;;5072576;28;20048;-73
2023/04/14 01:31:28;;;;;;;6.72;2.53;;;4.00;99.90;;;;;;5095447;28;20047;-74
2023/04/14 01:34:06;;;;;;;5.67;2.47;;;4.00;99.90;;;;;;5094929;28;20079;-73
2023/04/14 01:36:50;;;;;;;4.55;2.38;;;4.00;99.90;;;;;;5095087;28;20044;-75
2023/04/14 01:39:19;;;;;;;5.20;2.30;;;4.00;99.90;;;;;;5095373;28;20084;-74
2023/04/14 01:41:51;;;;;;;6.00;2.50;;;4.00;99.90;;;;;;5095062;28;20044;-73
2023/04/14 01:44:18;;;;;;;3.78;2.50;;;4.00;99.90;;;;;;5094841;28;20098;-75
2023/04/14 01:46:46;;;;;;;5.47;2.58;;;4.10;99.90;;;;;;5094530;28;20124;-73
2023/04/14 01:49:12;;;;;;;6.53;2.67;;;4.20;99.90;;;;;;5094861;28;20067;-75
2023/04/14 01:51:41;;;;;;;8.15;2.83;;;4.20;99.90;;;;;;5094196;28;20491;-73
2023/04/14 01:54:10;;;;;;;3.90;2.80;;;4.30;99.90;;;;;;5094817;28;20048;-74
2023/04/14 01:56:38;;;;;;;4.45;2.70;;;4.30;99.90;;;;;;5094514;28;20404;-74
2023/04/14 01:59:05;;;;;;;7.88;2.85;;;4.30;99.90;;;;;;5094720;28;20387;-73
2023/04/14 02:01:33;;;;;;;6.38;3.08;;;4.40;99.90;;;;;;5094646;28;20086;-74
2023/04/14 02:04:01;;;;;;;6.38;2.70;;;4.40;99.90;;;;;;5094140;28;20518;-75
2023/04/14 02:06:30;;;;;;;4.75;2.92;;;4.50;99.90;;;;;;5093368;28;20066;-74
2023/04/14 02:09:01;;;;;;;5.88;3.10;;;4.50;99.90;;;;;;5094402;28;20054;-74
2023/04/14 02:11:28;;;;;;;6.70;3.05;;;4.60;99.90;;;;;;5094495;28;20032;-73
2023/04/14 02:13:55;;;;;;;8.48;3.70;;;4.60;99.90;;;;;;5094526;28;20048;-74
2023/04/14 02:16:22;;;;;;;5.00;3.00;;;4.60;99.90;;;;;;5094384;28;20040;-74
2023/04/14 02:18:49;;;;;;;5.53;2.60;;;4.60;99.90;;;;;;5094129;28;20048;-74
2023/04/14 02:21:17;;;;;;;5.75;2.80;;;4.60;99.90;;;;;;5094341;28;20086;-74
2023/04/14 02:23:43;;;;;;;7.95;3.00;;;4.70;99.90;;;;;;5094225;28;20040;-74
2023/04/14 02:26:20;;;;;;;7.93;3.45;;;4.70;99.90;;;;;;5094283;28;20047;-74
2023/04/14 02:28:50;;;;;;;7.28;3.08;;;4.70;99.90;;;;;;5094218;28;20040;-74
2023/04/14 02:31:22;;;;;;;8.40;2.95;;;4.80;99.90;;;;;;5092912;28;20036;-75
2023/04/14 02:33:53;;;;;;;5.13;2.70;;;4.80;99.90;;;;;;5092827;28;20496;-74
2023/04/14 02:36:33;;;;;;;7.25;2.83;;;4.90;99.90;;;;;;5093843;28;20499;-74
2023/04/14 02:39:05;;;;;;;7.28;2.90;;;4.90;99.90;;;;;;5093901;28;20044;-74
2023/04/14 02:41:32;;;;;;;9.23;2.78;;;4.90;99.90;;;;;;5094030;28;20048;-74
2023/04/14 02:44:25;;;;;;;6.88;3.30;;;5.00;99.90;;;;;;5093915;28;20043;-73
2023/04/14 02:47:14;;;;;;;5.88;2.83;;;5.00;99.90;;;;;;5091711;28;20067;-74
2023/04/14 02:49:43;;;;;;;8.60;2.60;;;5.00;99.90;;;;;;5093046;28;20506;-73
2023/04/14 02:52:11;;;;;;;6.68;3.28;;;5.00;99.90;;;;;;5093903;28;20056;-74
2023/04/14 02:54:39;;;;;;;8.90;2.70;;;4.90;99.90;;;;;;5093850;28;20040;-74
2023/04/14 02:57:05;;;;;;;7.35;2.60;;;5.00;99.90;;;;;;5093820;28;20488;-74
2023/04/14 02:59:32;;;;;;;8.18;3.15;;;4.90;99.90;;;;;;5093838;28;20044;-74
2023/04/14 03:02:01;;;;;;;8.68;3.65;;;4.90;99.90;;;;;;5093396;28;20044;-74
2023/04/14 03:04:29;;;;;;;7.88;2.92;;;4.80;99.90;;;;;;5093596;28;20044;-73
2023/04/14 03:06:56;;;;;;;8.35;2.85;;;4.90;99.90;;;;;;5093380;28;20506;-73
2023/04/14 03:09:22;;;;;;;;;;;4.70;99.90;;;;;;5094050;28;20123;-74
2023/04/14 03:11:49;;;;;;;8.32;3.15;;;4.70;99.90;;;;;;5093615;28;19920;-74
2023/04/14 03:14:16;;;;;;;4.88;2.67;;;4.70;99.90;;;;;;5093648;28;20048;-75
2023/04/14 03:16:42;;;;;;;4.20;2.55;;;4.60;99.90;;;;;;5093270;28;20044;-74
2023/04/14 03:19:11;;;;;;;6.95;2.85;;;4.60;99.90;;;;;;5092391;28;20125;-74
2023/04/14 03:21:37;;;;;;;6.25;2.67;;;4.50;99.90;;;;;;5093414;28;20047;-73
2023/04/14 03:24:04;;;;;;;8.53;3.03;;;4.50;99.90;;;;;;5093376;28;20079;-74
2023/04/14 03:26:30;;;;;;;;;;;4.40;99.90;;;;;;5093875;28;20040;-73
2023/04/14 03:28:59;;;;;;;3.97;2.63;;;4.30;99.90;;;;;;5093531;28;19926;-74
2023/04/14 03:31:30;;;;;;;8.00;3.03;;;4.30;99.90;;;;;;5093113;28;20048;-75
2023/04/14 03:33:58;;;;;;;7.10;3.42;;;4.20;99.90;;;;;;5092642;28;20130;-74
2023/04/14 03:36:25;;;;;;;5.97;3.45;;;4.10;99.90;;;;;;5093357;28;20399;-73
2023/04/14 03:38:54;;;;;;;4.43;2.75;;;4.10;99.90;;;;;;5093436;28;20044;-74
2023/04/14 03:41:21;;;;;;;6.35;2.72;;;4.00;99.90;;;;;;5093495;28;20073;-73
2023/04/14 03:43:53;;;;;;;4.35;2.80;;;4.00;99.90;;;;;;5093613;28;20503;-73
2023/04/14 03:46:19;;;;;;;6.25;3.25;;;3.90;99.90;;;;;;5097407;28;20131;-73
2023/04/14 03:48:47;;;;;;;8.68;2.92;;;3.90;99.90;;;;;;5097467;28;20044;-74
2023/04/14 03:51:15;;;;;;;5.03;2.83;;;3.80;99.90;;;;;;5096852;28;20063;-75
2023/04/14 03:53:44;;;;;;;5.55;2.97;;;3.80;99.90;;;;;;5097243;28;20475;-75
2023/04/14 03:56:13;;;;;;;6.95;2.75;;;3.70;99.90;;;;;;5096979;28;20036;-74
2023/04/14 03:58:42;;;;;;;5.15;2.90;;;3.70;99.90;;;;;;5097054;28;20114;-74
2023/04/14 04:01:09;;;;;;;4.78;2.85;;;3.60;99.90;;;;;;5095947;28;20052;-73
2023/04/14 04:03:37;;;;;;;7.30;3.17;;;3.50;99.90;;;;;;5095628;28;20424;-74
2023/04/14 04:06:03;;;;;;;6.28;2.80;;;3.50;99.90;;;;;;5097045;28;20125;-74
2023/04/14 04:08:31;;;;;;;8.60;3.22;;;3.40;99.90;;;;;;5096907;28;20090;-75
2023/04/14 04:10:59;;;;;;;8.85;3.08;;;3.40;99.90;;;;;;5096351;28;20125;-75
2023/04/14 04:13:26;;;;;;;5.43;3.03;;;3.40;99.90;;;;;;5096847;28;20039;-74
2023/04/14 04:15:52;;;;;;;6.88;3.30;;;3.30;99.90;;;;;;5096479;28;20404;-74
2023/04/14 04:18:19;;;;;;;7.65;3.65;;;3.30;99.90;;;;;;5096737;28;20040;-73
2023/04/14 04:20:46;;;;;;;5.57;3.20;;;3.30;99.90;;;;;;5096461;28;20040;-73
2023/04/14 04:23:13;;;;;;;5.63;3.55;;;3.20;99.90;;;;;;5096352;28;20047;-73
2023/04/14 04:25:40;;;;;;;7.25;3.30;;;3.20;99.90;;;;;;5096162;28;20040;-73
2023/04/14 04:28:06;;;;;;;9.05;3.47;;;3.20;99.90;;;;;;5096566;28;20062;-74
2023/04/14 04:30:34;;;;;;;7.55;3.40;;;3.20;99.90;;;;;;5095977;28;20044;-74
2023/04/14 04:33:05;;;;;;;6.93;3.20;;;3.10;99.90;;;;;;5096409;28;20036;-74
2023/04/14 04:35:32;;;;;;;4.88;3.50;;;3.10;99.90;;;;;;5096394;28;20090;-74
2023/04/14 04:38:00;;;;;;;7.15;3.50;;;3.10;99.90;;;;;;5095920;28;20044;-74
2023/04/14 04:40:26;;;;;;;6.47;3.47;;;3.10;99.90;;;;;;5096144;28;20077;-74
2023/04/14 04:42:51;;;;;;;7.77;3.40;;;3.10;99.90;;;;;;5096131;28;20071;-75
2023/04/14 04:45:37;;;;;;;9.15;3.53;;;3.00;99.90;;;;;;5095961;28;20087;-74
2023/04/14 04:48:03;;;;;;;6.95;3.63;;;3.00;99.90;;;;;;5096308;28;20391;-73
2023/04/14 04:50:28;;;;;;;4.40;3.35;;;3.00;99.90;;;;;;5095951;28;20140;-74
2023/04/14 04:52:54;;;;;;;6.15;3.28;;;3.00;99.90;;;;;;5095874;28;20134;-73
2023/04/14 04:55:20;;;;;;;10.55;3.58;;;3.00;99.90;;;;;;5095106;28;20044;-75
2023/04/14 04:57:45;;;;;;;5.82;3.70;;;3.00;99.90;;;;;;5095956;28;20396;-73
2023/04/14 05:00:11;;;;;;;8.52;4.00;;;3.00;99.90;;;;;;5095601;28;20040;-74
2023/04/14 05:02:37;;;;;;;4.68;3.50;;;3.00;99.90;;;;;;5095906;28;20119;-73
2023/04/14 05:05:02;;;;;;;5.00;3.30;;;3.00;99.90;;;;;;5094749;28;20544;-74
2023/04/14 05:07:28;;;;;;;10.18;4.28;;;3.00;99.90;;;;;;5095353;28;20442;-78
2023/04/14 05:09:54;;;;;;;11.05;3.78;;;3.00;99.90;;;;;;5077742;28;20036;-74
2023/04/14 05:12:19;;;;;;;12.52;4.30;;;3.10;99.90;;;;;;5095799;28;20048;-76
2023/04/14 05:14:45;;;;;;;6.97;3.85;;;3.10;99.90;;;;;;5095517;28;20036;-74
2023/04/14 05:17:10;;;;;;;7.72;3.70;;;3.10;99.90;;;;;;5095292;28;20052;-74
2023/04/14 05:19:37;;;;;;;7.60;3.63;;;3.10;99.90;;;;;;5095275;28;20044;-75
2023/04/14 05:22:03;;;;;;;8.95;3.90;;;3.20;99.90;;;;;;5095050;28;20036;-75
2023/04/14 05:24:29;;;;;;;5.75;3.70;;;3.30;99.90;;;;;;5095364;28;20070;-74
2023/04/14 05:26:55;;;;;;;6.85;3.65;;;3.40;99.90;;;;;;5095603;28;20468;-75
2023/04/14 05:29:20;;;;;;;7.27;4.00;;;3.50;99.90;;;;;;5095115;28;20044;-74
2023/04/14 05:31:46;;;;;;;8.80;3.60;;;3.60;99.90;;;;;;5095211;28;20369;-75
2023/04/14 05:34:13;;;;;;;8.88;4.10;;;3.70;99.90;;;;;;5095255;28;20036;-73
2023/04/14 05:36:39;;;;;;;7.57;4.07;;;3.70;99.90;;;;;;5095010;28;20075;-75
2023/04/14 05:39:05;;;;;;;8.23;3.90;;;3.80;99.90;;;;;;5095063;28;20082;-75
2023/04/14 05:41:30;;;;;;;4.90;3.75;;;3.80;99.90;;;;;;5095025;28;20044;-75
2023/04/14 05:43:56;;;;;;;10.68;5.60;;;3.90;99.90;;;;;;5095164;28;20086;-73
2023/04/14 05:46:21;;;;;;;5.63;3.47;;;3.90;99.90;;;;;;5094779;28;20058;-75
2023/04/14 05:48:47;;;;;;;12.63;5.75;;;4.00;99.90;;;;;;5095018;28;20052;-75
2023/04/14 05:51:12;;;;;;;8.40;4.30;;;4.10;99.90;;;;;;5095028;28;20056;-74
2023/04/14 05:53:38;;;;;;;10.40;4.28;;;4.20;99.90;;;;;;5094850;28;20047;-75
2023/04/14 05:56:04;;;;;;;6.95;3.95;;;4.30;99.90;;;;;;5094679;28;20127;-75
2023/04/14 05:58:29;;;;;;;8.20;4.22;;;4.30;99.90;;;;;;5094820;28;20040;-76
2023/04/14 06:00:55;;;;;;;10.90;4.05;;;4.40;99.90;;;;;;5094720;28;20039;-75
2023/04/14 06:03:20;;;;;;;16.25;4.20;;;4.40;99.90;;;;;;5094594;28;20052;-75
2023/04/14 06:05:47;;;;;;;9.13;4.55;;;4.50;99.90;;;;;;5094578;28;20047;-79
2023/04/14 06:08:12;;;;;;;7.67;4.03;;;4.60;99.90;;;;;;5093336;28;20044;-75
2023/04/14 06:10:38;;;;;;;14.00;4.30;;;4.70;99.90;;;;;;5094235;28;20036;-74
2023/04/14 06:13:04;;;;;;;6.47;4.30;;;4.70;99.90;;;;;;5094618;28;20052;-74
2023/04/14 06:15:29;;;;;;;7.68;4.18;;;4.70;99.90;;;;;;5094552;28;20040;-75
2023/04/14 06:17:55;;;;;;;7.32;4.28;;;4.80;99.90;;;;;;5094326;28;20109;-73
2023/04/14 06:20:21;;;;;;;11.38;4.97;;;4.80;99.90;;;;;;5094345;28;20081;-74
2023/04/14 06:22:47;;;;;;;12.15;4.85;;;4.90;99.90;;;;;;5094132;28;20052;-73
2023/04/14 06:25:12;;;;;;;8.68;4.80;;;5.00;99.90;;;;;;5093962;28;20496;-73
2023/04/14 06:27:38;;;;;;;10.02;4.22;;;5.10;99.90;;;;;;5094432;28;20126;-74
2023/04/14 06:30:05;;;;;;;11.45;4.50;;;5.20;99.90;;;;;;5093816;28;20079;-74
2023/04/14 06:32:31;;;;;;;10.32;4.47;;;5.40;99.90;;;;;;5093915;28;20097;-73
2023/04/14 06:34:56;;;;;;;21.40;5.05;;;5.60;99.90;;;;;;5093855;28;20047;-73
2023/04/14 06:37:22;;;;;;;11.10;4.05;;;5.70;99.90;;;;;;5093749;28;20036;-72
2023/04/14 06:39:47;;;;;;;7.60;3.75;;;5.90;99.90;;;;;;5093781;28;20051;-73
2023/04/14 06:42:14;;;;;;;8.60;3.70;;;6.20;99.90;;;;;;5094088;28;20047;-73
2023/04/14 06:44:40;;;;;;;12.90;3.83;;;6.40;99.90;;;;;;5094142;28;20052;-73
2023/04/14 06:47:05;;;;;;;9.85;4.05;;;6.60;99.90;;;;;;5093972;28;20395;-73
2023/04/14 06:49:31;;;;;;;12.48;3.60;;;6.80;99.90;;;;;;5093627;28;20094;-78
2023/04/14 06:51:56;;;;;;;12.00;3.58;;;7.00;99.90;;;;;;5093663;28;20446;-77
2023/04/14 06:54:23;;;;;;;10.15;3.33;;;7.20;99.90;;;;;;5094090;28;20148;-73
2023/04/14 06:56:49;;;;;;;9.13;3.05;;;7.40;99.90;;;;;;5093671;28;20508;-73
2023/04/14 06:59:14;;;;;;;6.93;3.10;;;7.60;99.90;;;;;;5093806;28;20131;-73
2023/04/14 07:01:40;;;;;;;13.30;3.13;;;7.70;99.90;;;;;;5093567;28;20098;-73
2023/04/14 07:04:06;;;;;;;9.30;3.03;;;7.90;99.90;;;;;;5093788;28;20052;-73
2023/04/14 07:06:31;;;;;;;10.68;3.10;;;8.10;99.90;;;;;;5093231;28;20487;-74
2023/04/14 07:08:57;;;;;;;6.68;2.65;;;8.60;99.90;;;;;;5093537;28;20150;-74
2023/04/14 07:11:23;;;;;;;9.18;3.10;;;8.40;99.90;;;;;;5092372;28;20472;-73
2023/04/14 07:13:48;;;;;;;6.57;2.60;;;8.50;99.90;;;;;;5093556;28;20066;-74
2023/04/14 07:16:14;;;;;;;7.22;3.33;;;8.70;99.90;;;;;;5093448;28;20040;-74
2023/04/14 07:18:39;;;;;;;6.75;3.10;;;8.80;99.90;;;;;;5095546;28;20377;-73
2023/04/14 07:21:05;;;;;;;6.53;3.20;;;8.80;99.90;;;;;;5100191;28;20059;-73
2023/04/14 07:23:32;;;;;;;11.57;3.83;;;9.00;99.90;;;;;;5100101;28;20048;-74
2023/04/14 07:25:58;;;;;;;;;;;9.00;99.90;;;;;;5100734;28;20063;-74
2023/04/14 07:28:25;;;;;;;10.65;3.10;;;9.20;99.90;;;;;;5100275;28;20360;-74
2023/04/14 07:30:52;;;;;;;9.27;3.28;;;9.30;99.90;;;;;;5099932;28;20052;-72
2023/04/14 07:33:18;;;;;;;9.05;3.47;;;9.40;99.90;;;;;;5100178;28;20071;-72
2023/04/14 07:35:48;;;;;;;9.20;3.30;;;9.60;99.90;;;;;;5099781;28;20123;-72
2023/04/14 07:38:14;;;;;;;11.45;3.40;;;9.70;99.90;;;;;;5100052;28;20032;-72
2023/04/14 07:40:40;;;;;;;12.48;3.70;;;9.80;99.90;;;;;;5099854;28;20086;-72
2023/04/14 07:43:06;;;;;;;13.40;4.32;;;9.90;99.90;;;;;;5100106;28;20044;-74
2023/04/14 07:45:31;;;;;;;15.35;3.90;;;10.10;99.90;;;;;;5100079;28;20044;-73
2023/04/14 07:47:57;;;;;;;6.80;3.28;;;10.10;99.90;;;;;;5100149;28;20036;-74
2023/04/14 07:50:23;;;;;;;9.25;2.97;;;10.30;99.90;;;;;;5099472;28;20087;-73
2023/04/14 07:52:49;;;;;;;12.95;3.97;;;10.40;99.90;;;;;;5099852;28;20096;-72
2023/04/14 07:55:14;;;;;;;9.02;2.75;;;10.40;99.90;;;;;;5100118;28;20543;-72
2023/04/14 07:57:40;;;;;;;5.53;2.42;;;10.50;99.90;;;;;;5099623;28;20454;-72
2023/04/14 08:00:08;;;;;;;4.60;2.00;;;10.50;99.90;;;;;;5099936;28;20043;-72
2023/04/14 08:02:34;;;;;;;9.70;2.10;;;10.60;99.90;;;;;;5099887;28;20055;-72
2023/04/14 08:04:59;;;;;;;9.00;2.15;;;10.70;99.90;;;;;;5099481;28;20492;-72
2023/04/14 08:07:27;;;;;;;7.60;2.50;;;10.90;99.90;;;;;;5099627;28;20430;-72
2023/04/14 08:09:53;;;;;;;5.65;2.10;;;10.70;99.90;;;;;;5099619;28;20044;-72
2023/04/14 08:12:19;;;;;;;4.70;1.60;;;10.80;99.90;;;;;;5099867;28;20082;-72
2023/04/14 08:14:46;;;;;;;6.40;2.33;;;11.00;99.90;;;;;;5099710;28;20072;-72
2023/04/14 08:17:12;;;;;;;12.27;2.03;;;11.00;99.90;;;;;;5099602;28;20043;-72
2023/04/14 08:19:38;;;;;;;9.02;2.00;;;11.60;99.90;;;;;;5099575;28;20124;-72
2023/04/14 08:22:03;;;;;;;8.50;2.38;;;11.20;99.90;;;;;;5099507;28;20105;-72
2023/04/14 08:24:29;;;;;;;7.47;1.70;;;11.30;99.90;;;;;;5099635;28;20089;-72
2023/04/14 08:26:55;;;;;;;7.60;2.07;;;11.20;99.90;;;;;;5099763;28;20044;-72
2023/04/14 08:29:21;;;;;;;8.02;1.98;;;11.30;99.90;;;;;;5099485;28;20101;-72
2023/04/14 08:31:47;;;;;;;6.27;2.43;;;11.50;99.90;;;;;;5096154;28;20488;-72
2023/04/14 08:34:13;;;;;;;5.78;1.85;;;11.60;99.90;;;;;;5096297;28;20048;-72
2023/04/14 08:36:39;;;;;;;8.90;2.13;;;11.80;99.90;;;;;;5096176;28;20044;-72
2023/04/14 08:39:05;;;;;;;9.38;1.88;;;11.70;99.90;;;;;;5096339;28;20055;-73
2023/04/14 08:41:33;;;;;;;12.60;1.58;;;11.80;99.90;;;;;;5096089;28;20384;-72
2023/04/14 08:43:58;;;;;;;7.65;1.80;;;11.90;99.90;;;;;;5095925;28;20491;-72
2023/04/14 08:46:26;;;;;;;22.48;3.00;;;11.90;99.90;;;;;;5096192;28;20079;-72
2023/04/14 08:49:00;;;;;;;6.65;1.90;;;12.30;99.90;;;;;;5095695;28;20048;-72
2023/04/14 08:51:35;;;;;;;5.25;1.70;;;12.10;99.90;;;;;;5095564;28;20074;-72
2023/04/14 08:54:11;;;;;;;8.20;2.20;;;12.10;99.90;;;;;;5096054;28;20044;-71
2023/04/14 08:56:41;;;;;;;5.10;2.17;;;12.20;99.90;;;;;;5095860;28;20044;-71
2023/04/14 08:59:10;;;;;;;7.22;2.17;;;12.20;99.90;;;;;;5095829;28;20395;-72
2023/04/14 09:01:37;;;;;;;9.85;2.55;;;12.40;99.90;;;;;;5095588;28;20066;-72
2023/04/14 09:04:03;;;;;;;4.75;2.03;;;12.40;99.90;;;;;;5095904;28;20098;-72
2023/04/14 09:06:33;;;;;;;9.98;2.38;;;12.60;99.90;;;;;;5095629;28;20384;-72
2023/04/14 09:09:04;;;;;;;8.57;2.50;;;12.60;99.90;;;;;;5095444;28;20491;-72
2023/04/14 09:11:30;;;;;;;5.63;1.85;;;12.70;99.90;;;;;;5095925;28;20043;-72
2023/04/14 09:13:58;;;;;;;5.10;2.10;;;12.70;99.90;;;;;;5095573;28;20048;-72
2023/04/14 09:16:25;;;;;;;5.43;2.00;;;12.80;99.90;;;;;;5094424;28;20282;-72
2023/04/14 09:18:52;;;;;;;8.18;2.20;;;12.80;99.90;;;;;;5095847;28;20044;-72
2023/04/14 09:21:17;;;;;;;;;;;12.90;99.90;;;;;;5095772;28;20040;-72
2023/04/14 09:23:43;;;;;;;6.65;2.30;;;12.80;99.90;;;;;;5095425;28;19978;-72
2023/04/14 09:26:09;;;;;;;3.95;2.17;;;12.90;99.90;;;;;;5095562;28;20453;-72
2023/04/14 09:28:38;;;;;;;6.60;2.28;;;12.90;99.90;;;;;;5094904;28;20492;-72
2023/04/14 09:31:04;;;;;;;10.02;2.10;;;13.00;99.90;;;;;;5095199;28;20387;-72
2023/04/14 09:33:30;;;;;;;5.43;2.33;;;12.90;99.90;;;;;;5095106;28;20040;-72
2023/04/14 09:35:56;;;;;;;5.80;2.47;;;13.10;99.90;;;;;;5095238;28;20036;-72
2023/04/14 09:38:38;;;;;;;5.53;2.22;;;13.10;99.90;;;;;;5095069;28;20048;-73
2023/04/14 09:41:07;;;;;;;8.85;2.58;;;13.10;99.90;;;;;;5095060;28;20036;-77
2023/04/14 09:43:33;;;;;;;6.55;2.30;;;13.20;99.90;;;;;;5094756;28;20040;-77
2023/04/14 09:46:08;;;;;;;6.85;2.70;;;13.20;99.90;;;;;;5093721;28;20464;-72
2023/04/14 09:48:36;;;;;;;6.55;2.35;;;13.40;99.90;;;;;;5095089;28;20090;-72
2023/04/14 09:51:08;;;;;;;5.22;2.40;;;13.40;99.90;;;;;;5094423;28;20555;-72
2023/04/14 09:53:41;;;;;;;11.07;2.53;;;13.50;99.90;;;;;;5094682;28;20438;-73
2023/04/14 09:56:09;;;;;;;5.40;1.85;;;13.60;99.90;;;;;;5094856;28;20044;-72
2023/04/14 09:58:40;;;;;;;6.75;1.90;;;13.80;99.90;;;;;;5093324;28;20503;-73
2023/04/14 10:01:30;;;;;;;3.95;2.10;;;13.70;99.90;;;;;;5094623;28;20047;-72
2023/04/14 10:03:55;;;;;;;4.47;2.20;;;13.80;99.90;;;;;;5094674;28;20044;-72
2023/04/14 10:06:23;;;;;;;11.30;2.27;;;13.80;99.90;;;;;;5094223;28;20040;-72
2023/04/14 10:08:50;;;;;;;8.10;2.20;;;13.80;99.90;;;;;;5094309;28;20040;-72
2023/04/14 10:11:19;;;;;;;6.07;2.38;;;13.90;99.90;;;;;;5094403;28;20048;-73
2023/04/14 10:13:49;;;;;;;5.68;2.03;;;13.90;99.90;;;;;;5093571;28;20127;-73
2023/04/14 10:16:15;;;;;;;8.25;2.53;;;13.80;99.90;;;;;;5094466;28;20400;-73
2023/04/14 10:18:42;;;;;;;6.72;2.22;;;13.80;99.90;;;;;;5094115;28;20452;-74
2023/04/14 10:21:09;;;;;;;8.48;2.00;;;13.80;99.90;;;;;;5093869;28;20127;-73
2023/04/14 10:23:40;;;;;;;5.22;2.78;;;13.90;99.90;;;;;;5094100;28;20590;-79
2023/04/14 10:26:06;;;;;;;6.38;2.40;;;13.90;99.90;;;;;;5076803;28;20044;-76
2023/04/14 10:28:34;;;;;;;;;;;14.00;99.90;;;;;;5094751;28;20093;-75
2023/04/14 10:31:00;;;;;;;9.35;2.13;;;14.00;99.90;;;;;;5094229;28;20306;-76
2023/04/14 10:33:27;;;;;;;5.82;2.38;;;14.10;99.90;;;;;;5093914;28;20392;-74
2023/04/14 10:36:02;;;;;;;6.67;1.90;;;14.10;99.90;;;;;;5094207;28;20052;-75
2023/04/14 10:38:38;;;;;;;9.15;2.22;;;14.30;99.90;;;;;;5094097;28;20278;-76
2023/04/14 10:41:05;;;;;;;4.63;1.83;;;14.20;99.90;;;;;;5094049;28;20083;-81
2023/04/14 10:43:33;;;;;;;6.35;2.28;;;14.20;99.90;;;;;;5093676;28;20499;-75
2023/04/14 10:45:59;;;;;;;6.82;2.00;;;14.30;99.90;;;;;;5098568;28;20050;-74
2023/04/14 10:48:35;;;;;;;9.53;2.00;;;14.40;99.90;;;;;;5093973;28;20466;-74
2023/04/14 10:51:03;;;;;;;6.18;1.80;;;14.80;99.90;;;;;;5093821;28;20131;-74
2023/04/14 10:53:45;;;;;;;8.30;1.65;;;14.40;99.90;;;;;;5093094;28;20048;-74
2023/04/14 10:56:11;;;;;;;7.72;2.30;;;14.50;99.90;;;;;;5093470;28;20389;-78
2023/04/14 10:58:37;;;;;;;7.22;2.38;;;14.60;99.90;;;;;;5093361;28;20090;-73
2023/04/14 11:01:24;;;;;;;7.60;2.30;;;14.70;99.90;;;;;;5093643;28;20093;-73
2023/04/14 11:03:51;;;;;;;7.20;2.10;;;14.70;99.90;;;;;;5093710;28;20055;-75
2023/04/14 11:06:57;;;;;;;7.63;2.10;;;14.60;99.90;;;;;;5093540;28;20051;-73
2023/04/14 11:09:35;;;;;;;5.32;1.95;;;14.70;99.90;;;;;;5094036;28;20048;-73
2023/04/14 11:12:28;;;;;;;8.18;2.33;;;14.90;99.90;;;;;;5093973;28;20044;-73
2023/04/14 11:14:55;;;;;;;5.30;2.00;;;15.00;99.90;;;;;;5093417;28;20126;-73
2023/04/14 11:17:21;;;;;;;7.20;1.90;;;15.20;99.90;;;;;;5093267;28;20411;-75
2023/04/14 11:19:51;;;;;;;4.63;1.90;;;15.30;99.90;;;;;;5093634;28;20468;-76
2023/04/14 11:22:43;;;;;;;6.10;2.33;;;15.40;99.90;;;;;;5093545;28;20058;-77
2023/04/14 11:25:19;;;;;;;6.28;2.00;;;15.20;99.90;;;;;;5093674;28;20063;-73
2023/04/14 11:27:47;;;;;;;3.70;2.03;;;15.40;99.90;;;;;;5093468;28;20041;-73
2023/04/14 11:30:17;;;;;;;8.35;2.20;;;15.40;99.90;;;;;;5093221;28;20109;-73
2023/04/14 11:32:56;;;;;;;6.20;1.67;;;15.50;99.90;;;;;;5093429;28;20036;-73
2023/04/14 11:35:26;;;;;;;6.72;2.13;;;15.80;99.90;;;;;;5093645;28;20048;-73
2023/04/14 11:37:55;;;;;;;4.53;1.88;;;15.60;98.80;;;;;;5093656;28;20067;-80
2023/04/14 11:40:21;;;;;;;3.45;2.05;;;15.90;99.90;;;;;;5093119;28;20040;-80
2023/04/14 11:42:57;;;;;;;5.93;2.00;;;15.50;99.90;;;;;;5093548;28;20093;-82
2023/04/14 11:45:29;;;;;;;6.82;2.28;;;15.50;99.90;;;;;;5092131;28;20052;-73
2023/04/14 11:47:59;;;;;;;5.72;2.35;;;15.60;99.90;;;;;;5092808;28;20051;-73
2023/04/14 11:50:29;;;;;;;8.02;2.20;;;15.70;99.90;;;;;;5091352;28;20048;-74
2023/04/14 11:52:58;;;;;;;5.80;2.20;;;15.80;99.90;;;;;;5092975;28;20471;-73
2023/04/14 11:55:25;;;;;;;4.50;2.30;;;15.90;99.90;;;;;;5093277;28;20507;-74
2023/04/14 11:57:51;;;;;;;9.55;2.67;;;15.80;99.90;;;;;;5093208;28;20130;-73
2023/04/14 12:00:17;;;;;;;6.82;2.35;;;15.90;99.20;;;;;;5092796;28;20102;-74
2023/04/14 12:02:44;;;;;;;6.72;2.42;;;15.90;99.80;;;;;;5092999;28;20044;-73
2023/04/14 12:05:12;;;;;;;5.80;2.70;;;15.80;99.20;;;;;;5094295;28;20032;-73
2023/04/14 12:07:40;;;;;;;6.68;2.60;;;15.60;99.90;;;;;;5096769;28;20040;-74
2023/04/14 12:10:06;;;;;;;6.28;2.47;;;15.60;99.60;;;;;;5096881;28;20149;-73
2023/04/14 12:12:32;;;;;;;6.88;2.30;;;15.80;99.90;;;;;;5096821;28;20131;-73
2023/04/14 12:14:58;;;;;;;6.82;2.67;;;15.60;98.80;;;;;;5096622;28;20463;-73
2023/04/14 12:17:25;;;;;;;5.50;2.30;;;15.60;99.90;;;;;;5096918;28;20055;-74
2023/04/14 12:19:51;;;;;;;6.95;2.40;;;15.50;99.90;;;;;;5096842;28;20368;-74
2023/04/14 12:22:25;;;;;;;7.23;2.50;;;15.70;99.90;;;;;;5096582;28;20530;-74
2023/04/14 12:24:51;;;;;;;5.90;2.42;;;15.80;99.20;;;;;;5096442;28;20475;-73
2023/04/14 12:27:22;;;;;;;7.38;2.55;;;15.90;99.60;;;;;;5096619;28;20044;-73
2023/04/14 12:29:49;;;;;;;6.60;2.60;;;15.90;99.10;;;;;;5096494;28;20040;-74
2023/04/14 12:32:14;;;;;;;;;;;15.80;99.90;;;;;;5096875;28;20047;-73
2023/04/14 12:34:50;;;;;;;8.40;2.60;;;15.60;98.00;;;;;;5096405;28;19924;-74
2023/04/14 12:37:17;;;;;;;6.82;2.22;;;15.50;99.00;;;;;;5096351;28;20040;-74
2023/04/14 12:39:50;;;;;;;6.68;2.63;;;15.50;98.90;;;;;;5096397;28;20072;-74
2023/04/14 12:42:17;;;;;;;6.68;2.15;;;15.20;98.40;;;;;;5096201;28;20488;-74
2023/04/14 12:44:56;;;;;;;5.68;2.47;;;15.20;98.70;;;;;;5096453;28;20040;-73
2023/04/14 12:47:33;;;;;;;5.75;2.28;;;15.20;99.30;;;;;;5096194;28;20048;-73
2023/04/14 12:50:01;;;;;;;7.13;2.28;;;15.40;99.00;;;;;;5095971;28;20123;-73
2023/04/14 12:52:38;;;;;;;8.85;2.53;;;15.70;98.40;;;;;;5095994;28;20056;-74
2023/04/14 12:55:05;;;;;;;10.00;2.45;;;16.00;99.10;;;;;;5096209;28;20514;-74
2023/04/14 12:57:32;;;;;;;8.35;2.30;;;16.30;99.30;;;;;;5095625;28;20096;-74
2023/04/14 13:00:03;;;;;;;7.20;2.30;;;16.60;98.10;;;;;;5095526;28;20458;-73